Petrolina, Brazil
Current Conditions -  °F | °C
As of 6:00 AM on Saturday 29 Nov 2014 (Local Time) from SBPL Reporting Station
Few Clouds Few Clouds  
Wind Chill: 77°   Ceiling: Unl
Heat Index: 78°   Visibility: 6mi
Dew Point: 72°   Wind: 8mph
Humidity: 83%   Direction: 150°SSE
Pressure: 29.94"   Gusts: NA
Location:  9.38°S, 40.51°W
Report Text: SBPL 290900Z 15007KT 9999 FEW027 25/22 Q1014
Loading
Personal Weather Stations






























Interactive Weather Map New forecast layout! Learn more

10-Day Weather Forecast

Advertisements
Track Severe Weather on mobile